createdAt,value
2024-05-09T00:03:56.515Z,103031.25
2024-05-09T00:06:23.168Z,103026.16
2024-05-09T00:08:49.827Z,103028.91
2024-05-09T00:11:16.629Z,103030.09
2024-05-09T00:13:43.401Z,103028.50
2024-05-09T00:16:10.147Z,103027.72
2024-05-09T00:18:40.223Z,103027.16
2024-05-09T00:21:08.844Z,103023.81
2024-05-09T00:26:53.034Z,103015.03
2024-05-09T00:30:41.615Z,103023.34
2024-05-09T00:37:34.048Z,103013.44
2024-05-09T00:40:05.800Z,103010.00
2024-05-09T00:48:42.573Z,103004.03
2024-05-09T00:51:15.339Z,103006.19
2024-05-09T00:53:42.440Z,103002.81
2024-05-09T00:56:13.597Z,102998.59
2024-05-09T00:58:40.711Z,103001.38
2024-05-09T01:19:40.292Z,103000.59
2024-05-09T01:23:00.054Z,103004.09
2024-05-09T01:25:26.734Z,102994.47
2024-05-09T01:27:53.330Z,102996.03
2024-05-09T01:30:24.374Z,102993.06
2024-05-09T01:32:54.836Z,102984.47
2024-05-09T01:35:23.574Z,102986.44
2024-05-09T01:37:51.941Z,102995.41
2024-05-09T01:40:25.209Z,102985.34
2024-05-09T01:43:00.482Z,102991.03
2024-05-09T01:45:27.941Z,102990.38
2024-05-09T01:47:54.825Z,102989.06
2024-05-09T01:50:33.080Z,102989.75
2024-05-09T01:53:04.303Z,102988.22
2024-05-09T01:55:30.873Z,102992.94
2024-05-09T01:57:57.480Z,102983.28
2024-05-09T02:00:38.077Z,102990.34
2024-05-09T02:03:23.306Z,102986.19
2024-05-09T02:05:57.986Z,102990.25
2024-05-09T02:08:26.019Z,102985.91
2024-05-09T02:11:14.851Z,102986.84
2024-05-09T02:13:53.656Z,102982.63
2024-05-09T02:26:15.457Z,102983.41
2024-05-09T02:29:35.018Z,102983.56
2024-05-09T02:32:01.823Z,102983.47
2024-05-09T02:37:09.131Z,102981.97
2024-05-09T02:39:47.661Z,102993.38
2024-05-09T02:46:18.911Z,102985.97
2024-05-09T02:54:46.900Z,102976.78
2024-05-09T02:57:15.827Z,102972.56
2024-05-09T02:59:45.312Z,102971.59
2024-05-09T03:02:11.966Z,102961.00
2024-05-09T03:04:38.858Z,102973.50
2024-05-09T03:07:05.520Z,102966.97
2024-05-09T03:09:32.167Z,102969.50
2024-05-09T03:11:59.252Z,102974.09
2024-05-09T03:14:26.201Z,102967.09
2024-05-09T03:16:52.891Z,102966.09
2024-05-09T03:19:19.533Z,102973.06
2024-05-09T03:21:46.198Z,102965.94
2024-05-09T03:24:12.784Z,102964.97
2024-05-09T03:26:39.403Z,102967.75
2024-05-09T03:29:06.268Z,102969.00
2024-05-09T03:31:33.325Z,102967.06
2024-05-09T03:34:00.087Z,102955.69
2024-05-09T03:36:26.764Z,102962.69
2024-05-09T03:38:53.809Z,102962.53
2024-05-09T03:41:25.645Z,102964.94
2024-05-09T03:43:52.281Z,102960.72
2024-05-09T03:46:18.891Z,102957.44
2024-05-09T03:48:45.606Z,102965.09
2024-05-09T03:51:12.516Z,102962.38
2024-05-09T03:53:43.433Z,102955.19
2024-05-09T03:56:10.237Z,102964.13
2024-05-09T03:58:37.740Z,102961.72
2024-05-09T04:01:05.099Z,102961.81
2024-05-09T04:03:34.740Z,102964.69
2024-05-09T04:07:14.096Z,102968.13
2024-05-09T04:15:14.989Z,102970.81
2024-05-09T04:17:53.872Z,102966.94
2024-05-09T04:20:53.284Z,102963.38
2024-05-09T04:23:19.962Z,102963.56
2024-05-09T04:25:47.138Z,102974.34
2024-05-09T04:28:14.441Z,102971.53
2024-05-09T04:30:47.218Z,102962.78
2024-05-09T04:55:00.352Z,102986.47
2024-05-09T05:00:32.271Z,102982.34
2024-05-09T05:03:08.410Z,102983.91
2024-05-09T05:05:41.865Z,102986.25
2024-05-09T05:08:13.245Z,102989.63
2024-05-09T05:13:23.822Z,102995.25
2024-05-09T05:15:58.864Z,102994.00
2024-05-09T05:29:49.805Z,103005.84
2024-05-09T05:32:16.680Z,103009.81
2024-05-09T05:34:46.321Z,102998.53
2024-05-09T05:37:13.047Z,103001.63
2024-05-09T05:39:39.558Z,103010.09
2024-05-09T05:42:06.253Z,103003.31
2024-05-09T06:31:08.762Z,102990.28
2024-05-09T07:21:51.778Z,102970.97
2024-05-09T07:24:18.659Z,102969.50
2024-05-09T07:27:07.514Z,102976.31
2024-05-09T07:29:42.165Z,102973.28
2024-05-09T07:32:15.145Z,102974.75
2024-05-09T07:34:41.951Z,102967.97
2024-05-09T07:37:12.770Z,102970.47
2024-05-09T07:39:40.204Z,102957.75
2024-05-09T07:42:07.195Z,102957.53
2024-05-09T07:44:33.928Z,102961.75
2024-05-09T07:55:45.372Z,102951.66
2024-05-09T08:01:38.239Z,102947.28
2024-05-09T08:04:04.959Z,102952.16
2024-05-09T08:06:34.522Z,102960.53
2024-05-09T08:09:05.439Z,102952.34
2024-05-09T08:11:34.820Z,102954.66
2024-05-09T08:14:01.600Z,102944.81
2024-05-09T08:16:28.695Z,102946.00
2024-05-09T08:18:55.527Z,102942.88
2024-05-09T08:21:22.187Z,102949.84
2024-05-09T08:23:53.714Z,102943.88
2024-05-09T08:26:20.598Z,102944.63
2024-05-09T08:28:47.360Z,102943.16
2024-05-09T08:31:17.108Z,102942.91
2024-05-09T08:33:50.226Z,102938.66
2024-05-09T08:36:17.424Z,102937.22
2024-05-09T08:38:48.660Z,102937.28
2024-05-09T08:41:19.550Z,102935.31
2024-05-09T08:46:42.759Z,102937.34
2024-05-09T08:49:10.334Z,102939.53
2024-05-09T08:51:37.259Z,102943.13
2024-05-09T08:54:06.671Z,102936.66
2024-05-09T08:56:42.354Z,102938.09
2024-05-09T08:59:18.004Z,102932.50
2024-05-09T09:09:15.723Z,102928.75
2024-05-09T09:12:08.580Z,102931.28
2024-05-09T09:14:36.126Z,102923.63
2024-05-09T09:17:12.703Z,102925.06
2024-05-09T09:19:42.195Z,102930.94
2024-05-09T09:22:10.467Z,102925.97
2024-05-09T09:24:37.121Z,102929.03
2024-05-09T09:27:04.204Z,102921.25
2024-05-09T09:29:34.321Z,102917.38
2024-05-09T09:32:05.355Z,102920.44
2024-05-09T09:34:32.671Z,102919.59
2024-05-09T09:37:06.511Z,102921.44
2024-05-09T09:39:38.936Z,102919.34
2024-05-09T09:42:09.119Z,102922.06
2024-05-09T09:44:39.463Z,102914.88
2024-05-09T09:47:06.566Z,102912.59
2024-05-09T09:49:33.537Z,102905.00
2024-05-09T09:52:02.307Z,102905.66
2024-05-09T10:01:28.471Z,102902.75
2024-05-09T10:04:02.431Z,102910.91
2024-05-09T10:06:30.127Z,102898.44
2024-05-09T10:36:30.494Z,102869.75
2024-05-09T11:29:10.889Z,102824.16
2024-05-09T11:31:47.724Z,102826.25
2024-05-09T11:34:18.099Z,102833.97
2024-05-09T12:20:00.256Z,102794.78
2024-05-09T12:22:29.776Z,102789.97
2024-05-09T12:24:56.327Z,102801.09
2024-05-09T12:33:19.863Z,102792.41
2024-05-09T12:36:33.346Z,102787.44
2024-05-09T12:39:18.026Z,102782.13
2024-05-09T12:48:13.342Z,102771.72
2024-05-09T12:50:42.004Z,102773.25
2024-05-09T12:53:28.873Z,102771.63
2024-05-09T12:56:19.722Z,102766.38
2024-05-09T12:58:46.311Z,102772.88
2024-05-09T13:02:01.224Z,102759.41
2024-05-09T13:11:14.871Z,102764.47
2024-05-09T13:13:41.511Z,102758.31
2024-05-09T13:18:13.061Z,102764.50
2024-05-09T13:48:34.696Z,102755.59
2024-05-09T13:51:30.152Z,102762.59
2024-05-09T13:56:52.504Z,102760.06
2024-05-09T14:09:53.636Z,102749.75
2024-05-09T14:12:27.636Z,102742.94
2024-05-09T14:14:55.453Z,102750.13
2024-05-09T14:17:24.310Z,102739.28
2024-05-09T14:20:13.972Z,102738.31
2024-05-09T14:22:44.973Z,102731.19
2024-05-09T14:25:15.404Z,102738.06
2024-05-09T14:27:42.182Z,102731.41
2024-05-09T14:30:18.601Z,102730.53
2024-05-09T14:32:59.310Z,102726.63
2024-05-09T16:32:53.397Z,102622.38
2024-05-09T16:39:07.144Z,102616.53
2024-05-09T16:45:14.959Z,102618.91
2024-05-09T17:10:29.656Z,102616.66
2024-05-09T17:20:34.357Z,102612.84
2024-05-09T17:37:42.889Z,102604.22
2024-05-09T17:40:16.881Z,102610.69
2024-05-09T18:01:09.885Z,102609.59
